createdAt,value
2022-10-03T00:01:16.843Z,101331.03
2022-10-03T00:04:01.661Z,101329.50
2022-10-03T00:06:58.188Z,101340.13
2022-10-03T00:09:47.353Z,101340.94
2022-10-03T00:12:47.604Z,101342.78
2022-10-03T00:15:26.516Z,101340.41
2022-10-03T00:18:40.629Z,101351.59
2022-10-03T00:21:25.298Z,101350.06
2022-10-03T00:24:18.633Z,101348.78
2022-10-03T00:26:54.873Z,101347.81
2022-10-03T00:29:51.371Z,101357.03
2022-10-03T00:32:37.036Z,101359.22
2022-10-03T00:35:39.220Z,101361.69
2022-10-03T00:38:30.928Z,101359.31
2022-10-03T00:41:33.182Z,101357.69
2022-10-03T00:44:21.463Z,101359.56
2022-10-03T00:47:20.172Z,101369.03
2022-10-03T00:50:17.908Z,101357.22
2022-10-03T00:53:15.685Z,101374.97
2022-10-03T00:56:12.879Z,101365.03
2022-10-03T00:59:15.870Z,101362.34
2022-10-03T01:01:48.329Z,101365.03
2022-10-03T01:04:54.662Z,101360.38
2022-10-03T01:08:02.913Z,101362.81
2022-10-03T01:10:46.129Z,101368.13
2022-10-03T01:13:44.898Z,101361.59
2022-10-03T01:16:59.248Z,101378.06
2022-10-03T01:19:58.677Z,101371.88
2022-10-03T01:23:11.778Z,101377.25
2022-10-03T01:26:22.397Z,101370.47
2022-10-03T01:29:21.043Z,101385.06
2022-10-03T01:32:08.932Z,101381.31
2022-10-03T01:35:25.783Z,101370.91
2022-10-03T01:38:20.662Z,101377.19
2022-10-03T01:41:37.783Z,101401.16
2022-10-03T01:44:13.601Z,101404.41
2022-10-03T01:47:12.965Z,101401.81
2022-10-03T01:49:54.579Z,101401.34
2022-10-03T01:52:58.631Z,101405.16
2022-10-03T01:56:00.348Z,101387.41
2022-10-03T01:59:06.651Z,101398.81
2022-10-03T02:01:58.762Z,101395.06
2022-10-03T02:05:07.150Z,101397.75
2022-10-03T02:08:14.695Z,101401.41
2022-10-03T02:10:53.475Z,101386.97
2022-10-03T02:13:37.204Z,101417.56
2022-10-03T02:16:52.908Z,101409.16
2022-10-03T02:19:42.190Z,101408.59
2022-10-03T02:22:31.642Z,101405.16
2022-10-03T02:25:35.368Z,101415.44
2022-10-03T02:28:55.431Z,101419.53
2022-10-03T02:32:08.573Z,101414.16
2022-10-03T02:34:56.925Z,101413.66
2022-10-03T02:38:12.860Z,101424.19
2022-10-03T02:41:04.184Z,101418.13
2022-10-03T02:44:14.783Z,101422.31
2022-10-03T02:47:25.261Z,101415.28
2022-10-03T02:50:38.605Z,101426.41
2022-10-03T02:53:47.214Z,101425.34
2022-10-03T02:57:12.438Z,101422.66
2022-10-03T03:00:21.669Z,101428.84
2022-10-03T03:03:25.725Z,101436.66
2022-10-03T03:06:58.213Z,101439.38
2022-10-03T03:10:19.220Z,101443.69
2022-10-03T03:13:36.904Z,101451.75
2022-10-03T03:16:41.460Z,101446.97
2022-10-03T03:19:29.777Z,101440.50
2022-10-03T03:23:02.855Z,101439.94
2022-10-03T03:25:49.118Z,101437.00
2022-10-03T03:28:55.665Z,101445.97
2022-10-03T03:32:03.154Z,101451.13
2022-10-03T03:34:55.853Z,101456.75
2022-10-03T03:37:46.891Z,101455.44
2022-10-03T03:40:57.184Z,101454.16
2022-10-03T03:43:57.062Z,101457.66
2022-10-03T03:47:05.396Z,101464.44
2022-10-03T03:49:59.305Z,101454.38
2022-10-03T03:53:00.125Z,101465.97
2022-10-03T03:56:08.192Z,101468.91
2022-10-03T03:58:41.635Z,101469.63
2022-10-03T04:01:49.167Z,101471.59
2022-10-03T04:05:12.266Z,101458.63
2022-10-03T04:08:21.297Z,101469.97
2022-10-03T04:11:29.757Z,101460.25
2022-10-03T04:14:38.677Z,101468.56
2022-10-03T04:17:41.423Z,101476.91
2022-10-03T04:20:45.050Z,101483.44
2022-10-03T04:24:02.999Z,101487.19
2022-10-03T04:27:19.328Z,101476.41
2022-10-03T04:30:55.861Z,101486.94
2022-10-03T04:34:00.892Z,101479.59
2022-10-03T04:36:55.132Z,101480.41
2022-10-03T04:39:49.387Z,101488.00
2022-10-03T04:43:11.546Z,101472.66
2022-10-03T04:46:02.251Z,101482.03
2022-10-03T04:48:56.644Z,101488.47
2022-10-03T04:51:45.137Z,101482.53
2022-10-03T04:54:49.145Z,101489.06
2022-10-03T04:58:04.946Z,101502.50
2022-10-03T05:04:34.817Z,101493.03
2022-10-03T05:07:16.501Z,101501.94
2022-10-03T05:10:08.221Z,101495.75
2022-10-03T05:13:02.927Z,101495.84
2022-10-03T05:15:50.890Z,101505.53
2022-10-03T05:18:35.035Z,101497.47
2022-10-03T05:21:08.004Z,101503.66
2022-10-03T05:24:07.336Z,101499.81
2022-10-03T05:27:23.893Z,101502.03
2022-10-03T05:30:06.855Z,101499.59
2022-10-03T05:33:07.648Z,101506.25
2022-10-03T05:36:18.795Z,101525.09
2022-10-03T05:39:29.799Z,101515.41
2022-10-03T05:42:39.347Z,101519.72
2022-10-03T05:45:52.889Z,101510.25
2022-10-03T05:48:49.427Z,101517.84
2022-10-03T05:51:44.028Z,101532.47
2022-10-03T05:54:49.900Z,101521.34
2022-10-03T05:57:59.073Z,101540.53
2022-10-03T06:01:18.234Z,101531.66
2022-10-03T06:04:34.734Z,101547.22
2022-10-03T06:07:33.306Z,101546.16
2022-10-03T06:10:43.955Z,101552.38
2022-10-03T06:13:21.024Z,101553.41
2022-10-03T06:15:59.889Z,101560.53
2022-10-03T06:18:53.488Z,101564.38
2022-10-03T06:21:41.312Z,101570.91
2022-10-03T06:24:49.839Z,101577.78
2022-10-03T06:27:35.782Z,101589.47
2022-10-03T06:30:39.519Z,101587.94
2022-10-03T06:33:09.742Z,101579.38
2022-10-03T06:39:59.582Z,101587.88
2022-10-03T06:43:14.534Z,101587.94
2022-10-03T06:46:08.667Z,101600.94
2022-10-03T06:48:44.312Z,101595.06
2022-10-03T06:52:07.321Z,101602.19
2022-10-03T06:55:18.769Z,101607.44
2022-10-03T06:58:20.215Z,101613.72
2022-10-03T07:01:11.514Z,101607.13
2022-10-03T07:04:06.379Z,101602.41
2022-10-03T07:07:11.346Z,101596.53
2022-10-03T07:10:02.271Z,101602.09
2022-10-03T07:13:00.884Z,101604.94
2022-10-03T07:16:10.674Z,101611.06
2022-10-03T07:18:55.573Z,101613.47
2022-10-03T07:22:13.654Z,101620.69
2022-10-03T07:25:24.211Z,101616.50
2022-10-03T07:28:31.119Z,101621.53
2022-10-03T07:31:03.112Z,101621.13
2022-10-03T07:34:20.992Z,101627.91
2022-10-03T07:37:45.042Z,101628.47
2022-10-03T07:40:54.276Z,101638.03
2022-10-03T07:43:44.956Z,101629.97
2022-10-03T07:46:42.555Z,101634.44
2022-10-03T07:49:16.244Z,101633.63
2022-10-03T07:52:26.061Z,101642.09
2022-10-03T07:55:19.409Z,101641.34
2022-10-03T07:58:26.818Z,101648.16
2022-10-03T08:01:38.207Z,101646.03
2022-10-03T08:04:37.177Z,101650.94
2022-10-03T08:07:31.941Z,101655.34
2022-10-03T08:10:25.017Z,101660.81
2022-10-03T08:13:17.692Z,101660.31
2022-10-03T08:15:59.966Z,101670.63
2022-10-03T08:18:50.656Z,101677.13
2022-10-03T08:21:34.143Z,101672.25
2022-10-03T08:24:28.304Z,101676.59
2022-10-03T08:27:30.001Z,101672.81
2022-10-03T08:30:24.121Z,101687.94
2022-10-03T08:33:00.287Z,101689.06
2022-10-03T08:36:10.412Z,101675.63
2022-10-03T08:39:19.256Z,101685.91
2022-10-03T08:42:01.372Z,101692.78
2022-10-03T08:45:12.761Z,101679.63
2022-10-03T08:48:17.721Z,101687.28
2022-10-03T08:51:20.377Z,101691.66
2022-10-03T08:54:32.507Z,101687.66
2022-10-03T08:57:41.084Z,101694.97
2022-10-03T09:00:45.630Z,101673.59
2022-10-03T09:04:12.600Z,101699.88
2022-10-03T09:07:19.224Z,101689.69
2022-10-03T09:10:20.837Z,101700.16
2022-10-03T09:13:15.828Z,101688.75
2022-10-03T09:16:20.827Z,101679.44
2022-10-03T09:19:09.707Z,101688.28
2022-10-03T09:22:11.800Z,101687.31
2022-10-03T09:25:12.823Z,101694.72
2022-10-03T09:28:12.291Z,101688.28
2022-10-03T09:31:32.697Z,101686.41
2022-10-03T09:34:55.248Z,101686.41
2022-10-03T09:37:58.965Z,101676.69
2022-10-03T09:41:19.389Z,101681.53
2022-10-03T09:44:04.348Z,101673.25
2022-10-03T09:47:12.377Z,101665.28
2022-10-03T09:50:28.049Z,101672.28
2022-10-03T09:53:02.309Z,101664.56
2022-10-03T09:56:02.851Z,101671.25
2022-10-03T09:58:57.211Z,101668.25
2022-10-03T10:01:30.425Z,101672.25
2022-10-03T10:04:15.989Z,101658.47
2022-10-03T10:07:31.552Z,101666.28
2022-10-03T10:10:47.924Z,101671.63
2022-10-03T10:14:07.695Z,101661.66
2022-10-03T10:16:50.492Z,101667.13
2022-10-03T10:19:51.849Z,101661.16
2022-10-03T10:23:04.415Z,101656.19
2022-10-03T10:26:09.808Z,101661.34
2022-10-03T10:29:12.474Z,101658.72
2022-10-03T10:32:05.178Z,101656.31
2022-10-03T10:35:04.901Z,101651.78
2022-10-03T10:38:26.200Z,101655.47
2022-10-03T10:41:25.908Z,101657.09
2022-10-03T10:44:50.408Z,101639.84
2022-10-03T10:47:29.062Z,101628.69
2022-10-03T10:50:26.733Z,101629.56
2022-10-03T10:53:27.484Z,101628.78
2022-10-03T10:56:50.689Z,101609.44
2022-10-03T10:59:52.614Z,101622.72
2022-10-03T11:02:52.997Z,101615.88
2022-10-03T11:06:17.498Z,101613.19
2022-10-03T11:09:37.709Z,101612.69
2022-10-03T11:12:37.522Z,101606.13
2022-10-03T11:15:47.757Z,101611.84
2022-10-03T11:19:11.364Z,101634.69
2022-10-03T11:22:13.085Z,101632.53
2022-10-03T11:24:58.683Z,101639.00
2022-10-03T11:28:29.396Z,101645.00
2022-10-03T11:31:30.485Z,101647.25
2022-10-03T11:34:22.068Z,101642.25
2022-10-03T11:37:23.849Z,101657.06
2022-10-03T11:40:22.488Z,101642.19
2022-10-03T11:43:26.425Z,101656.09
2022-10-03T11:46:39.398Z,101650.19
2022-10-03T11:49:37.539Z,101657.47
2022-10-03T11:52:27.701Z,101666.34
2022-10-03T11:55:24.518Z,101667.63
2022-10-03T11:58:16.221Z,101668.69
2022-10-03T12:00:47.854Z,101669.19
2022-10-03T12:03:20.328Z,101656.88
2022-10-03T12:06:18.389Z,101655.16
2022-10-03T12:09:26.560Z,101655.25
2022-10-03T12:12:28.193Z,101647.75
2022-10-03T12:15:05.675Z,101653.72
2022-10-03T12:17:39.612Z,101639.41
2022-10-03T12:20:25.864Z,101635.84
2022-10-03T12:23:21.425Z,101633.75
2022-10-03T12:25:50.279Z,101634.63
2022-10-03T12:28:31.483Z,101631.03
2022-10-03T12:31:19.441Z,101624.25
2022-10-03T12:34:24.351Z,101628.84
2022-10-03T12:37:01.446Z,101616.78
2022-10-03T12:39:50.797Z,101638.47
2022-10-03T12:42:31.949Z,101624.16
2022-10-03T12:45:33.897Z,101619.22
2022-10-03T12:48:34.939Z,101609.50
2022-10-03T12:51:31.808Z,101596.38
2022-10-03T12:54:17.318Z,101614.19
2022-10-03T12:57:29.424Z,101607.25
2022-10-03T13:00:05.444Z,101598.66
2022-10-03T13:02:41.570Z,101605.88
2022-10-03T13:05:32.465Z,101607.50
2022-10-03T13:08:11.642Z,101612.97
2022-10-03T13:11:30.926Z,101609.78
2022-10-03T13:14:30.940Z,101599.66
2022-10-03T13:17:29.316Z,101611.53
2022-10-03T13:20:24.780Z,101596.44
2022-10-03T13:23:23.646Z,101601.28
2022-10-03T13:26:12.692Z,101582.91
2022-10-03T13:29:20.178Z,101587.63
2022-10-03T13:32:16.579Z,101582.25
2022-10-03T13:35:24.883Z,101595.25
2022-10-03T13:38:27.617Z,101582.84
2022-10-03T13:41:28.787Z,101600.28
2022-10-03T13:44:26.443Z,101581.78
2022-10-03T13:48:06.320Z,101608.06
2022-10-03T13:50:48.065Z,101612.75
2022-10-03T13:53:49.236Z,101617.34
2022-10-03T13:56:52.493Z,101616.97
2022-10-03T13:59:48.664Z,101627.50
2022-10-03T14:02:41.933Z,101623.47
2022-10-03T14:05:43.176Z,101614.56
2022-10-03T14:08:30.181Z,101630.25
2022-10-03T14:11:26.889Z,101628.63
2022-10-03T14:14:28.271Z,101635.59
2022-10-03T14:17:15.258Z,101621.78
2022-10-03T14:20:10.907Z,101638.09
2022-10-03T14:22:52.806Z,101637.16
2022-10-03T14:25:41.256Z,101636.34
2022-10-03T14:28:20.673Z,101639.59
2022-10-03T14:31:19.615Z,101645.28
2022-10-03T14:34:00.147Z,101653.13
2022-10-03T14:37:02.007Z,101639.88
2022-10-03T14:40:37.107Z,101651.16
2022-10-03T14:43:27.444Z,101647.75
2022-10-03T14:45:59.245Z,101643.06
2022-10-03T14:48:37.907Z,101647.88
2022-10-03T14:51:19.745Z,101642.28
2022-10-03T14:53:55.242Z,101628.00
2022-10-03T14:56:24.684Z,101644.78
2022-10-03T14:58:54.828Z,101634.22
2022-10-03T15:01:26.376Z,101626.97
2022-10-03T15:04:04.578Z,101633.88
2022-10-03T15:06:46.653Z,101631.84
2022-10-03T15:09:23.282Z,101643.66
2022-10-03T15:12:03.322Z,101630.09
2022-10-03T15:14:35.360Z,101633.97
2022-10-03T15:17:16.686Z,101629.13
2022-10-03T15:19:54.965Z,101631.88
2022-10-03T15:22:36.549Z,101630.56
2022-10-03T15:25:19.961Z,101638.22
2022-10-03T15:27:52.168Z,101644.78
2022-10-03T15:30:32.327Z,101642.34
2022-10-03T15:33:22.916Z,101638.53
2022-10-03T15:35:55.484Z,101646.19
2022-10-03T15:38:45.134Z,101639.16
2022-10-03T15:41:17.025Z,101639.16
2022-10-03T15:43:54.402Z,101637.53
2022-10-03T15:46:29.941Z,101654.66
2022-10-03T15:49:01.461Z,101647.34
2022-10-03T15:51:33.034Z,101650.34
2022-10-03T15:54:12.086Z,101632.41
2022-10-03T15:56:42.789Z,101653.56
2022-10-03T15:59:32.119Z,101653.31
2022-10-03T16:02:12.761Z,101650.88
2022-10-03T16:04:40.996Z,101653.28
2022-10-03T16:07:14.390Z,101646.75
2022-10-03T16:09:57.038Z,101655.69
2022-10-03T16:12:53.054Z,101657.03
2022-10-03T16:15:40.514Z,101649.41
2022-10-03T16:18:19.806Z,101665.66
2022-10-03T16:20:56.921Z,101658.88
2022-10-03T16:23:36.606Z,101655.56
2022-10-03T16:26:30.152Z,101663.41
2022-10-03T16:29:29.102Z,101663.91
2022-10-03T16:32:07.214Z,101661.72
2022-10-03T16:34:37.496Z,101661.44
2022-10-03T16:37:16.474Z,101654.91
2022-10-03T16:39:52.366Z,101645.88
2022-10-03T16:42:29.164Z,101657.00
2022-10-03T16:44:58.595Z,101651.53
2022-10-03T16:47:36.465Z,101659.66
2022-10-03T16:50:23.618Z,101664.25
2022-10-03T16:52:53.482Z,101659.31
2022-10-03T16:55:33.238Z,101658.47
2022-10-03T16:58:09.964Z,101663.91
2022-10-03T17:01:09.074Z,101666.31
2022-10-03T17:04:23.763Z,101659.78
2022-10-03T17:07:03.612Z,101652.94
2022-10-03T17:09:49.988Z,101655.66
2022-10-03T17:12:24.969Z,101649.66
2022-10-03T17:14:57.482Z,101650.44
2022-10-03T17:17:46.662Z,101654.22
2022-10-03T17:20:36.448Z,101651.47
2022-10-03T17:23:39.955Z,101656.59
2022-10-03T17:26:22.833Z,101660.34
2022-10-03T17:29:11.028Z,101650.03
2022-10-03T17:32:02.054Z,101655.66
2022-10-03T17:34:47.960Z,101660.75
2022-10-03T17:37:46.849Z,101655.81
2022-10-03T17:40:40.181Z,101657.16
2022-10-03T17:44:07.900Z,101661.13
2022-10-03T17:47:09.536Z,101667.28
2022-10-03T17:49:57.195Z,101674.53
2022-10-03T17:52:25.345Z,101669.31
2022-10-03T17:55:02.243Z,101667.38
2022-10-03T17:57:34.460Z,101662.16
2022-10-03T18:00:16.670Z,101669.66
2022-10-03T18:03:15.726Z,101652.75
2022-10-03T18:06:20.324Z,101660.81
2022-10-03T18:08:50.390Z,101668.06
2022-10-03T18:11:24.601Z,101677.47
2022-10-03T18:14:18.554Z,101678.47
2022-10-03T18:17:06.907Z,101682.16
2022-10-03T18:20:30.448Z,101666.47
2022-10-03T18:23:06.366Z,101679.41
2022-10-03T18:26:19.566Z,101681.53
2022-10-03T18:29:19.013Z,101669.09
2022-10-03T18:31:57.403Z,101671.06
2022-10-03T18:34:41.601Z,101670.25
2022-10-03T18:37:26.769Z,101668.91
2022-10-03T18:39:56.979Z,101658.31
2022-10-03T18:42:30.406Z,101663.69
2022-10-03T18:45:00.729Z,101661.81
2022-10-03T18:47:38.665Z,101669.09
2022-10-03T18:50:45.525Z,101669.03
2022-10-03T18:53:26.999Z,101671.38
2022-10-03T18:56:10.425Z,101674.00
2022-10-03T18:58:45.097Z,101674.19
2022-10-03T19:01:56.075Z,101685.25
2022-10-03T19:04:51.609Z,101685.91
2022-10-03T19:07:33.632Z,101685.25
2022-10-03T19:10:16.372Z,101676.34
2022-10-03T19:12:50.463Z,101691.16
2022-10-03T19:15:55.019Z,101686.81
2022-10-03T19:18:51.631Z,101685.44
2022-10-03T19:21:21.232Z,101683.53
2022-10-03T19:24:05.709Z,101678.47
2022-10-03T19:26:36.011Z,101667.34
2022-10-03T19:29:21.905Z,101674.44
2022-10-03T19:32:16.215Z,101666.28
2022-10-03T19:34:45.897Z,101661.00
2022-10-03T19:37:47.256Z,101684.59
2022-10-03T19:40:52.923Z,101680.53
2022-10-03T19:43:57.611Z,101680.78
2022-10-03T19:46:43.290Z,101673.16
2022-10-03T19:49:40.419Z,101678.81
2022-10-03T19:52:30.492Z,101677.69
2022-10-03T19:55:15.132Z,101682.25
2022-10-03T19:57:48.986Z,101687.09
2022-10-03T20:00:15.779Z,101689.78
2022-10-03T20:02:45.214Z,101676.75
2022-10-03T20:05:24.380Z,101676.75
2022-10-03T20:08:32.574Z,101687.34
2022-10-03T20:11:11.457Z,101683.56
2022-10-03T20:13:48.167Z,101679.81
2022-10-03T20:16:20.607Z,101674.66
2022-10-03T20:18:52.341Z,101683.56
2022-10-03T20:21:24.927Z,101674.41
2022-10-03T20:23:54.841Z,101678.25
2022-10-03T20:26:28.225Z,101678.00
2022-10-03T20:29:19.902Z,101677.50
2022-10-03T20:31:47.596Z,101671.28
2022-10-03T20:34:19.905Z,101676.44
2022-10-03T20:36:53.105Z,101667.78
2022-10-03T20:39:20.333Z,101671.84
2022-10-03T20:41:59.338Z,101664.25
2022-10-03T20:44:57.836Z,101678.63
2022-10-03T20:48:00.942Z,101672.19
2022-10-03T20:50:41.014Z,101676.75
2022-10-03T20:53:22.561Z,101678.06
2022-10-03T20:56:09.584Z,101671.28
2022-10-03T20:58:56.254Z,101681.34
2022-10-03T21:01:28.928Z,101675.38
2022-10-03T21:04:30.324Z,101683.22
2022-10-03T21:07:26.060Z,101678.88
2022-10-03T21:10:20.796Z,101683.47
2022-10-03T21:13:14.421Z,101679.13
2022-10-03T21:15:47.773Z,101691.31
2022-10-03T21:18:26.333Z,101679.72
2022-10-03T21:21:03.608Z,101672.69
2022-10-03T21:23:38.446Z,101677.81
2022-10-03T21:26:08.104Z,101681.03
2022-10-03T21:28:38.684Z,101678.38
2022-10-03T21:31:12.538Z,101687.56
2022-10-03T21:34:00.432Z,101686.25
2022-10-03T21:36:49.973Z,101687.06
2022-10-03T21:40:00.336Z,101675.69
2022-10-03T21:42:44.555Z,101682.66
2022-10-03T21:45:39.109Z,101679.97
2022-10-03T21:48:44.142Z,101679.72
2022-10-03T21:51:34.525Z,101674.81
2022-10-03T21:57:43.965Z,101664.00
2022-10-03T22:00:26.668Z,101666.97
2022-10-03T22:03:14.199Z,101661.88
2022-10-03T22:05:52.060Z,101665.88
2022-10-03T22:08:26.863Z,101664.00
2022-10-03T22:11:07.408Z,101670.78
2022-10-03T22:13:37.965Z,101660.25
2022-10-03T22:16:19.305Z,101665.16
2022-10-03T22:19:35.051Z,101666.22
2022-10-03T22:22:31.646Z,101644.78
2022-10-03T22:25:21.273Z,101667.19
2022-10-03T22:27:57.063Z,101652.91
2022-10-03T22:30:24.165Z,101663.94
2022-10-03T22:33:16.293Z,101661.56
2022-10-03T22:35:53.892Z,101655.34
2022-10-03T22:38:26.776Z,101647.50
2022-10-03T22:40:56.152Z,101655.09
2022-10-03T22:43:24.640Z,101651.06
2022-10-03T22:45:54.032Z,101652.16
2022-10-03T22:48:26.361Z,101645.44
2022-10-03T22:50:55.234Z,101644.63
2022-10-03T22:53:27.197Z,101646.00
2022-10-03T22:56:34.756Z,101655.16
2022-10-03T22:59:03.861Z,101648.63
2022-10-03T23:01:31.264Z,101652.41
2022-10-03T23:03:58.484Z,101652.41
2022-10-03T23:07:13.265Z,101648.63
2022-10-03T23:10:01.692Z,101654.28
2022-10-03T23:12:39.838Z,101648.06
2022-10-03T23:15:09.335Z,101655.91
2022-10-03T23:18:03.804Z,101653.78
2022-10-03T23:21:08.152Z,101654.59
2022-10-03T23:23:52.547Z,101662.63
2022-10-03T23:26:53.844Z,101654.03
2022-10-03T23:29:21.231Z,101655.66
2022-10-03T23:31:59.403Z,101661.63
2022-10-03T23:34:35.553Z,101663.00
2022-10-03T23:37:11.902Z,101664.09
2022-10-03T23:39:44.290Z,101657.88
2022-10-03T23:42:24.209Z,101664.09
2022-10-03T23:45:19.903Z,101667.59
2022-10-03T23:48:11.692Z,101673.81
2022-10-03T23:51:07.497Z,101667.84
2022-10-03T23:53:46.721Z,101675.94
2022-10-03T23:56:22.681Z,101676.75
2022-10-03T23:59:14.850Z,101684.59
